This is the latest recevied weather packets stored in our database for station/object YO9FTR-10. If no packets are shown the sender has not sent any weather packets the latest 10 day(s).
| Time | Temp. | Humidity | Pressure | Rain* | Wind** | Luminosity | Snow |
|---|---|---|---|---|---|---|---|
| 1777009848 | 11.11° C | 45% | 1015.9 hPa | - | - | - | - |
| 1777008945 | 11.11° C | 45% | 1016 hPa | - | - | - | - |
| 1777008042 | 11.67° C | 44% | 1016 hPa | - | - | - | - |
| 1777007140 | 12.22° C | 45% | 1016 hPa | - | - | - | - |
| 1777006236 | 10.56° C | 54% | 1016.1 hPa | - | - | - | - |
| 1777005333 | 8.33° C | 61% | 1016.1 hPa | - | - | - | - |
| 1777004430 | 7.78° C | 64% | 1016.2 hPa | - | - | - | - |
| 1777003528 | 6.11° C | 72% | 1016.1 hPa | - | - | - | - |
| 1777002625 | 5° C | 78% | 1016.1 hPa | - | - | - | - |
| 1777001722 | 5° C | 79% | 1016 hPa | - | - | - | - |
| 1777000819 | 5.56° C | 72% | 1015.8 hPa | - | - | - | - |
| 1776999916 | 5.56° C | 74% | 1015.7 hPa | - | - | - | - |
| 1776999013 | 6.11° C | 72% | 1015.7 hPa | - | - | - | - |
| 1776998110 | 5° C | 78% | 1015.6 hPa | - | - | - | - |
| 1776997207 | 5° C | 78% | 1015.7 hPa | - | - | - | - |
| 1776996304 | 5.56° C | 79% | 1015.6 hPa | - | - | - | - |
| 1776995402 | 5.56° C | 76% | 1015.3 hPa | - | - | - | - |
| 1776994499 | 5.56° C | 77% | 1015.3 hPa | - | - | - | - |
| 1776993595 | 6.67° C | 68% | 1015.3 hPa | - | - | - | - |
| 1776992692 | 6.11° C | 69% | 1015.3 hPa | - | - | - | - |
| 1776991790 | 6.67° C | 66% | 1015.3 hPa | - | - | - | - |
| 1776990887 | 6.67° C | 69% | 1015.3 hPa | - | - | - | - |
| 1776989984 | 7.78° C | 61% | 1015.3 hPa | - | - | - | - |
| 1776989081 | 6.67° C | 66% | 1015.2 hPa | - | - | - | - |
| 1776988179 | 6.11° C | 70% | 1015.4 hPa | - | - | - | - |
* Rain since midnight (hover to see other rain measurements)
** Current wind speed in m/s (hover to see current wind gust speed)